Time;durP1;ratioP1;P1;durP2;ratioP2;P2;SDS_P1;SDS_P2;PMS_P1;PMS_P2;Temp;Humidity;BMP_temperature;BMP_pressure;BME280_temperature;BME280_humidity;BME280_pressure;Samples;Min_cycle;Max_cycle;Signal;HPM_P1;HPM_P2
2022/07/12 00:01:44;;;;;;;0.40;0.40;;;;;;;18.66;98.50;102177.53;20952891;28;20048;-77
2022/07/12 00:11:46;;;;;;;0.40;0.40;;;;;;;18.66;98.40;102168.56;20961544;28;20052;-77
2022/07/12 00:21:48;;;;;;;0.38;0.38;;;;;;;18.44;98.12;102135.06;20961477;28;20052;-78
2022/07/12 00:31:49;;;;;;;0.35;0.35;;;;;;;18.65;97.82;102159.63;20953907;28;21062;-76
2022/07/12 00:41:51;;;;;;;0.35;0.35;;;;;;;18.64;97.74;102155.19;20975727;28;20144;-76
2022/07/12 00:51:54;;;;;;;0.50;0.50;;;;;;;18.64;97.57;102141.72;20973351;28;20040;-76
2022/07/12 01:01:55;;;;;;;0.40;0.40;;;;;;;18.62;97.34;102138.28;20961976;28;20044;-75
2022/07/12 01:11:57;;;;;;;0.50;0.40;;;;;;;18.54;97.10;102137.94;20955135;28;20147;-75
2022/07/12 01:22:01;;;;;;;0.32;0.32;;;;;;;18.62;96.76;102142.78;20971037;28;20059;-76
2022/07/12 01:42:25;;;;;;;0.40;0.40;;;;;;;18.60;96.14;102169.00;20968301;28;20049;-76
2022/07/12 01:52:27;;;;;;;0.40;0.40;;;;;;;18.60;95.98;102187.88;20961174;28;20056;-76
2022/07/12 02:02:30;;;;;;;0.35;0.35;;;;;;;18.59;95.76;102195.13;20959133;28;20086;-76
2022/07/12 02:12:32;;;;;;;0.28;0.28;;;;;;;18.59;95.29;102188.88;20967607;28;20036;-76
2022/07/12 02:22:34;;;;;;;0.30;0.30;;;;;;;18.41;95.11;102160.41;20968016;28;20044;-76
2022/07/12 02:32:37;;;;;;;0.38;0.38;;;;;;;17.94;94.75;102071.13;20966842;28;20052;-76
2022/07/12 02:42:39;;;;;;;0.30;0.30;;;;;;;18.48;94.21;102163.53;20946757;28;20151;-77
2022/07/12 02:52:40;;;;;;;0.22;0.22;;;;;;;18.55;94.30;102172.91;20902173;28;20044;-76
2022/07/12 03:02:42;;;;;;;0.52;0.30;;;;;;;18.34;93.94;102126.75;20905468;28;20051;-76
2022/07/12 03:12:44;;;;;;;0.40;0.20;;;;;;;18.49;93.87;102164.38;20881451;28;20140;-77
2022/07/12 03:22:48;;;;;;;1.55;0.30;;;;;;;18.54;93.70;102170.31;20880662;28;20049;-75
2022/07/12 03:32:50;;;;;;;11.55;0.93;;;;;;;18.46;93.44;102151.13;20879208;28;20094;-76
2022/07/12 03:42:52;;;;;;;0.35;0.35;;;;;;;18.52;93.26;102161.47;20880747;28;20103;-76
2022/07/12 03:52:54;;;;;;;0.60;0.20;;;;;;;18.53;93.14;102168.56;20903851;28;20052;-76
2022/07/12 04:02:56;;;;;;;0.45;0.30;;;;;;;18.32;92.82;102136.78;20965655;28;20067;-76
2022/07/12 04:12:58;;;;;;;0.30;0.20;;;;;;;18.51;92.57;102175.91;20975500;28;20040;-76
2022/07/12 04:23:00;;;;;;;0.52;0.30;;;;;;;18.28;92.39;102127.19;20977079;28;20148;-76
2022/07/12 04:33:01;;;;;;;1.13;0.28;;;;;;;18.34;92.30;102132.16;20976347;28;20068;-76
2022/07/12 04:43:03;;;;;;;0.15;0.15;;;;;;;18.49;92.15;102149.06;20975559;28;20041;-76
2022/07/12 04:53:04;;;;;;;0.35;0.35;;;;;;;18.49;92.06;102170.66;20965038;28;20040;-76
2022/07/12 05:03:06;;;;;;;0.30;0.30;;;;;;;18.50;91.93;102168.78;20975161;28;20485;-76
2022/07/12 05:13:08;;;;;;;0.60;0.30;;;;;;;18.51;91.88;102173.22;20973807;28;20055;-76
2022/07/12 05:23:09;;;;;;;0.20;0.20;;;;;;;18.16;91.79;102117.28;20877889;28;20083;-76
2022/07/12 05:33:12;;;;;;;0.28;0.20;;;;;;;18.50;91.74;102201.16;20880710;28;20045;-76
2022/07/12 05:43:15;;;;;;;0.50;0.40;;;;;;;18.39;91.77;102175.81;20886297;28;20045;-76
2022/07/12 05:53:23;;;;;;;0.32;0.32;;;;;;;18.52;91.96;102196.50;20887085;28;20094;-77
2022/07/12 06:03:24;;;;;;;0.30;0.30;;;;;;;18.52;91.67;102199.22;20886702;28;20076;-77
2022/07/12 06:13:26;;;;;;;1.13;0.38;;;;;;;18.51;92.02;102203.75;20825448;28;20054;-77
2022/07/12 06:23:28;;;;;;;0.50;0.40;;;;;;;18.51;91.97;102209.16;20866616;28;20049;-77
2022/07/12 06:33:30;;;;;;;0.50;0.50;;;;;;;18.54;92.31;102221.53;20871302;28;20049;-76
2022/07/12 06:43:31;;;;;;;1.23;0.45;;;;;;;18.32;92.52;102182.63;20872843;28;20048;-76
2022/07/12 06:53:33;;;;;;;0.50;0.50;;;;;;;18.54;92.66;102224.22;20870174;28;20057;-76
2022/07/12 07:03:34;;;;;;;0.50;0.50;;;;;;;18.54;92.94;102218.84;20880465;28;20525;-76
2022/07/12 07:13:36;;;;;;;0.70;0.60;;;;;;;18.55;93.44;102231.34;20951134;28;20071;-77
2022/07/12 07:23:45;;;;;;;0.50;0.50;;;;;;;18.59;93.56;102232.00;20964350;28;20048;-75
2022/07/12 07:33:47;;;;;;;0.80;0.80;;;;;;;18.64;94.16;102224.47;20843732;28;20050;-74
2022/07/12 07:43:49;;;;;;;2.72;0.80;;;;;;;18.76;95.30;102220.03;20829972;28;20093;-77
2022/07/12 07:53:50;;;;;;;2.92;1.25;;;;;;;18.91;95.00;102216.22;20857813;28;20048;-74
2022/07/12 08:03:52;;;;;;;1.25;0.70;;;;;;;19.03;94.98;102213.66;20867428;28;20548;-74
2022/07/12 08:13:54;;;;;;;1.00;0.77;;;;;;;19.10;94.53;102220.31;20870665;28;20060;-74
2022/07/12 08:23:56;;;;;;;1.10;0.75;;;;;;;19.15;94.73;102220.84;20864384;28;20795;-74
2022/07/12 08:33:57;;;;;;;4.22;0.70;;;;;;;19.15;94.62;102210.06;20821052;28;20076;-74
2022/07/12 08:44:00;;;;;;;1.17;0.70;;;;;;;19.11;93.97;102205.84;20779492;28;20141;-74
2022/07/12 08:54:12;;;;;;;1.20;0.50;;;;;;;19.06;94.10;102203.47;20781212;28;20440;-74
2022/07/12 09:04:14;;;;;;;1.42;0.70;;;;;;;19.10;94.45;102214.94;20781424;28;20072;-73
2022/07/12 09:14:19;;;;;;;1.00;0.60;;;;;;;19.07;94.65;102189.00;20870652;28;20049;-74
2022/07/12 09:24:24;;;;;;;0.63;0.60;;;;;;;19.06;94.78;102183.75;20890625;28;20456;-74
2022/07/12 09:44:46;;;;;;;0.43;0.43;;;;;;;19.05;95.11;102200.91;20868808;28;20099;-74
2022/07/12 09:54:52;;;;;;;0.70;0.70;;;;;;;19.04;95.37;102196.50;20846388;28;20049;-73
2022/07/12 10:04:54;;;;;;;0.50;0.50;;;;;;;19.02;95.49;102184.94;20776195;28;20049;-74
2022/07/12 10:15:02;;;;;;;0.50;0.50;;;;;;;19.02;95.65;102185.78;20789804;28;20050;-74
2022/07/12 10:25:05;;;;;;;0.73;0.70;;;;;;;18.99;95.61;102186.00;20781029;28;20530;-74
2022/07/12 10:35:19;;;;;;;1.42;0.65;;;;;;;19.01;95.77;102192.16;20866150;28;20053;-74
2022/07/12 10:45:23;;;;;;;0.50;0.50;;;;;;;18.92;96.19;102172.06;20886970;28;20102;-74
2022/07/12 10:55:25;;;;;;;1.17;0.50;;;;;;;19.01;96.32;102178.66;20897008;28;20107;-74
2022/07/12 11:05:27;;;;;;;4.32;1.05;;;;;;;19.02;96.76;102171.44;20880912;28;20107;-73
2022/07/12 11:15:28;;;;;;;0.80;0.80;;;;;;;19.03;96.97;102167.78;20881042;28;20581;-74
2022/07/12 11:25:30;;;;;;;0.77;0.52;;;;;;;19.01;96.89;102162.47;20861886;28;20141;-74
2022/07/12 11:35:32;;;;;;;0.50;0.50;;;;;;;19.02;97.10;102163.34;20869092;28;20072;-73
2022/07/12 11:45:34;;;;;;;0.55;0.55;;;;;;;19.02;97.42;102168.75;20858454;28;20041;-74
2022/07/12 11:55:44;;;;;;;0.98;0.60;;;;;;;18.87;96.90;102149.13;20797588;28;20136;-74
2022/07/12 12:05:46;;;;;;;0.70;0.70;;;;;;;18.99;97.04;102165.28;20825683;28;20493;-74
2022/07/12 12:15:59;;;;;;;0.98;0.47;;;;;;;19.03;97.10;102154.28;20840236;28;20405;-74
2022/07/12 12:26:27;;;;;;;1.40;0.60;;;;;;;19.04;97.18;102156.00;20837424;28;20068;-74
2022/07/12 12:36:36;;;;;;;0.60;0.60;;;;;;;19.04;97.46;102145.22;20802033;28;20132;-74
2022/07/12 12:46:53;;;;;;;0.50;0.50;;;;;;;19.04;97.58;102148.75;20852226;28;20065;-74
2022/07/12 12:56:55;;;;;;;0.40;0.40;;;;;;;19.04;97.40;102137.13;20881171;28;20493;-74
2022/07/12 13:06:57;;;;;;;0.50;0.50;;;;;;;18.96;97.35;102111.50;20844279;28;20049;-74
2022/07/12 13:16:59;;;;;;;0.70;0.70;;;;;;;19.04;97.40;102123.63;20790863;28;20048;-73
2022/07/12 13:27:01;;;;;;;0.80;0.50;;;;;;;19.05;97.38;102130.75;20837205;28;20581;-73
2022/07/12 13:37:03;;;;;;;0.52;0.52;;;;;;;19.05;97.38;102125.34;20858777;28;20406;-73
2022/07/12 13:47:05;;;;;;;0.95;0.57;;;;;;;18.95;97.36;102104.38;20840404;28;20148;-74
2022/07/12 13:57:07;;;;;;;0.60;0.50;;;;;;;19.06;97.53;102121.66;20854171;28;20053;-74
2022/07/12 14:07:09;;;;;;;0.52;0.40;;;;;;;19.05;97.37;102110.00;20851242;28;20041;-73
2022/07/12 14:17:11;;;;;;;0.35;0.35;;;;;;;19.05;97.28;102092.94;20777782;28;20045;-74
2022/07/12 14:27:12;;;;;;;1.05;0.40;;;;;;;18.98;96.88;102077.19;20765066;28;20112;-74
2022/07/12 14:37:14;;;;;;;0.43;0.43;;;;;;;19.03;97.00;102078.72;20797362;28;20049;-74
2022/07/12 14:47:15;;;;;;;0.90;0.50;;;;;;;18.90;96.80;102052.59;20788728;28;20041;-75
2022/07/12 14:57:18;;;;;;;0.55;0.50;;;;;;;18.99;96.65;102057.31;20780036;28;20438;-76
2022/07/12 15:07:19;;;;;;;0.57;0.52;;;;;;;19.01;96.81;102061.78;20769257;28;20049;-77
2022/07/12 15:17:21;;;;;;;0.43;0.43;;;;;;;18.81;97.00;102032.56;20768615;28;20206;-74
2022/07/12 15:27:22;;;;;;;0.40;0.40;;;;;;;18.99;97.09;102057.31;20798179;28;20049;-74
2022/07/12 15:37:24;;;;;;;0.70;0.50;;;;;;;19.00;97.19;102042.00;20848299;28;20048;-74
2022/07/12 15:47:25;;;;;;;0.57;0.57;;;;;;;18.99;96.82;102033.03;20850901;28;20400;-74
2022/07/12 15:57:27;;;;;;;0.40;0.40;;;;;;;18.98;96.96;102019.69;20857579;28;20045;-73
2022/07/12 16:07:29;;;;;;;1.83;0.75;;;;;;;18.98;96.60;102017.81;20869582;28;20497;-74
2022/07/12 16:17:31;;;;;;;0.55;0.55;;;;;;;18.96;96.38;102010.81;20836351;28;20094;-74
2022/07/12 16:27:33;;;;;;;0.65;0.50;;;;;;;18.96;96.31;102013.50;20863089;28;20111;-74
2022/07/12 16:37:34;;;;;;;0.73;0.60;;;;;;;18.95;95.97;102007.22;20883146;28;20387;-74
2022/07/12 16:47:36;;;;;;;0.77;0.77;;;;;;;18.95;96.19;101996.44;20840070;28;20045;-74
2022/07/12 16:57:38;;;;;;;0.52;0.50;;;;;;;18.94;96.21;102002.81;20868380;28;20041;-75
2022/07/12 17:07:39;;;;;;;0.77;0.50;;;;;;;18.79;96.45;101968.91;20856678;28;20126;-76
2022/07/12 17:17:41;;;;;;;0.73;0.40;;;;;;;18.94;96.50;101985.78;20848530;28;20144;-74
2022/07/12 17:27:42;;;;;;;1.52;0.60;;;;;;;18.93;96.38;101997.53;20861574;28;20049;-74
2022/07/12 17:37:44;;;;;;;0.80;0.63;;;;;;;18.93;97.37;102006.50;20861199;28;20142;-74
2022/07/12 17:47:45;;;;;;;0.90;0.70;;;;;;;18.94;97.77;101999.25;20806177;28;20057;-74
2022/07/12 18:08:07;;;;;;;1.08;0.55;;;;;;;18.93;98.10;101993.00;20803625;28;20449;-73
2022/07/12 18:18:10;;;;;;;0.60;0.60;;;;;;;18.93;98.16;101992.16;20802746;28;20049;-74
2022/07/12 18:28:13;;;;;;;0.55;0.50;;;;;;;18.92;98.43;102002.06;20800916;28;20052;-74
2022/07/12 18:38:15;;;;;;;0.60;0.52;;;;;;;18.92;98.95;101999.38;20782329;28;20053;-74
2022/07/12 18:48:17;;;;;;;0.75;0.65;;;;;;;18.92;99.23;101977.78;20835961;28;20053;-73
2022/07/12 18:58:18;;;;;;;0.77;0.50;;;;;;;18.90;99.46;101960.84;20864995;28;20103;-74
2022/07/12 19:08:20;;;;;;;0.98;0.73;;;;;;;18.91;99.73;101945.53;20835543;28;20041;-74
2022/07/12 19:18:21;;;;;;;0.68;0.63;;;;;;;18.90;99.77;101933.88;20879839;28;20056;-75
2022/07/12 19:28:23;;;;;;;1.15;0.80;;;;;;;18.90;99.80;101954.59;20893358;28;20053;-74
2022/07/12 19:38:25;;;;;;;2.13;0.88;;;;;;;18.90;100.00;101946.50;20879828;28;20064;-75
2022/07/12 19:48:26;;;;;;;0.82;0.60;;;;;;;18.89;100.00;101951.03;20912921;28;20042;-74
2022/07/12 19:58:28;;;;;;;0.75;0.70;;;;;;;18.83;100.00;101946.13;20807216;28;20457;-76
2022/07/12 20:08:30;;;;;;;0.98;0.65;;;;;;;18.89;100.00;101952.88;20845038;28;20087;-74
2022/07/12 20:18:32;;;;;;;0.82;0.73;;;;;;;18.88;100.00;101943.91;20877794;28;20049;-74
2022/07/12 20:28:33;;;;;;;1.35;1.00;;;;;;;18.88;100.00;101930.44;20900090;28;20045;-74
2022/07/12 20:38:35;;;;;;;0.82;0.68;;;;;;;18.58;100.00;101883.25;20923478;28;20079;-74
2022/07/12 20:48:36;;;;;;;0.73;0.73;;;;;;;18.87;100.00;101900.88;20916273;28;20102;-74
2022/07/12 20:58:38;;;;;;;0.70;0.70;;;;;;;18.78;100.00;101888.97;20928914;28;20037;-75
2022/07/12 21:08:40;;;;;;;1.67;0.80;;;;;;;18.88;100.00;101929.59;20891202;28;20049;-74
2022/07/12 21:18:42;;;;;;;1.35;0.93;;;;;;;18.86;100.00;101924.28;20890378;28;20045;-74
2022/07/12 21:28:44;;;;;;;0.88;0.70;;;;;;;18.70;100.00;101903.91;20901832;28;20069;-74
2022/07/12 21:38:46;;;;;;;1.30;0.88;;;;;;;18.86;100.00;101904.56;20807315;28;20046;-75
2022/07/12 21:48:47;;;;;;;1.58;0.90;;;;;;;18.86;100.00;101920.75;20845534;28;20049;-74
2022/07/12 21:58:49;;;;;;;0.98;0.80;;;;;;;18.84;100.00;101902.84;20867913;28;20056;-76
2022/07/12 22:08:50;;;;;;;0.80;0.80;;;;;;;18.81;100.00;101859.91;20887060;28;20041;-74
2022/07/12 22:18:52;;;;;;;1.00;0.90;;;;;;;18.66;100.00;101824.19;20885449;28;20075;-74
2022/07/12 22:28:54;;;;;;;1.33;0.90;;;;;;;18.84;100.00;101864.19;20933757;28;20052;-74
2022/07/12 22:38:55;;;;;;;1.13;1.02;;;;;;;18.84;100.00;101858.81;20934070;28;20053;-74
2022/07/12 22:48:57;;;;;;;0.85;0.85;;;;;;;18.84;100.00;101858.81;20915536;28;20045;-74
2022/07/12 22:58:58;;;;;;;1.63;0.85;;;;;;;18.84;100.00;101842.63;20906788;28;20044;-74
2022/07/12 23:09:00;;;;;;;2.15;0.90;;;;;;;18.83;100.00;101839.06;20877925;28;20147;-74
2022/07/12 23:19:02;;;;;;;0.95;0.85;;;;;;;18.84;100.00;101830.00;20880936;28;20059;-75
2022/07/12 23:29:03;;;;;;;1.13;0.80;;;;;;;18.79;100.00;101790.88;20891060;28;20362;-73
2022/07/12 23:39:05;;;;;;;0.77;0.77;;;;;;;18.76;100.00;101783.00;20963078;28;20045;-75
2022/07/12 23:49:06;;;;;;;0.82;0.75;;;;;;;18.82;100.00;101779.81;20964281;28;20185;-74
2022/07/12 23:59:08;;;;;;;1.25;1.00;;;;;;;18.81;100.00;101778.13;20878332;28;20037;-74
